<?xml version="1.0" encoding="UTF-8" standalone="no" ?>
<gpx xmlns="http://www.topografix.com/GPX/1/1" xmlns:xsi="http://www.w3.org/2001/XMLSchema-instance" xsi:schemaLocation="http://www.topografix.com/GPX/1/1 http://www.topografix.com/GPX/1/1/gpx.xsd" version="1.1" creator="VisuGPX - https://www.visugpx.com">
  <metadata>
    <name>Parcours VTT Aglo 2021</name>
  </metadata>
  <trk>
    <name><![CDATA[Bleu Cornillon village]]></name>
    <extensions>
      <line xmlns="http://www.topografix.com/GPX/gpx_style/0/2">
        <color>0000fa</color>
        <width>4</width>
      </line>
    </extensions>
    <trkseg>
      <trkpt lat="44.21832" lon="4.48554">
        <ele>87</ele>
        <time>2021-07-04T13:07:12Z</time>
      </trkpt>
      <trkpt lat="44.21832" lon="4.48554">
        <ele>87</ele>
        <time>2021-07-04T13:07:12Z</time>
      </trkpt>
      <trkpt lat="44.2188" lon="4.48604">
        <ele>88</ele>
        <time>2021-07-04T13:07:26Z</time>
      </trkpt>
      <trkpt lat="44.21862" lon="4.48742">
        <ele>92</ele>
        <time>2021-07-04T13:07:49Z</time>
      </trkpt>
      <trkpt lat="44.21894" lon="4.48818">
        <ele>99</ele>
        <time>2021-07-04T13:08:04Z</time>
      </trkpt>
      <trkpt lat="44.21996" lon="4.48759">
        <ele>106</ele>
        <time>2021-07-04T13:08:30Z</time>
      </trkpt>
      <trkpt lat="44.22192" lon="4.4871">
        <ele>116</ele>
        <time>2021-07-04T13:09:17Z</time>
      </trkpt>
      <trkpt lat="44.22251" lon="4.4876">
        <ele>128</ele>
        <time>2021-07-04T13:09:33Z</time>
      </trkpt>
      <trkpt lat="44.22322" lon="4.48763">
        <ele>135</ele>
        <time>2021-07-04T13:09:49Z</time>
      </trkpt>
      <trkpt lat="44.22389" lon="4.48634">
        <ele>142</ele>
        <time>2021-07-04T13:10:16Z</time>
      </trkpt>
      <trkpt lat="44.22363" lon="4.48792">
        <ele>149</ele>
        <time>2021-07-04T13:10:43Z</time>
      </trkpt>
      <trkpt lat="44.22417" lon="4.48864">
        <ele>162</ele>
        <time>2021-07-04T13:11:00Z</time>
      </trkpt>
      <trkpt lat="44.22438" lon="4.4891">
        <ele>159</ele>
        <time>2021-07-04T13:11:10Z</time>
      </trkpt>
      <trkpt lat="44.22461" lon="4.48904">
        <ele>160</ele>
        <time>2021-07-04T13:11:15Z</time>
      </trkpt>
      <trkpt lat="44.22473" lon="4.48962">
        <ele>160</ele>
        <time>2021-07-04T13:11:25Z</time>
      </trkpt>
      <trkpt lat="44.22462" lon="4.4899">
        <ele>161</ele>
        <time>2021-07-04T13:11:30Z</time>
      </trkpt>
      <trkpt lat="44.22468" lon="4.49036">
        <ele>165</ele>
        <time>2021-07-04T13:11:38Z</time>
      </trkpt>
      <trkpt lat="44.22439" lon="4.49072">
        <ele>173</ele>
        <time>2021-07-04T13:11:47Z</time>
      </trkpt>
      <trkpt lat="44.22448" lon="4.49118">
        <ele>175</ele>
        <time>2021-07-04T13:11:55Z</time>
      </trkpt>
      <trkpt lat="44.22399" lon="4.49235">
        <ele>183</ele>
        <time>2021-07-04T13:12:18Z</time>
      </trkpt>
      <trkpt lat="44.22432" lon="4.4937">
        <ele>186</ele>
        <time>2021-07-04T13:12:42Z</time>
      </trkpt>
      <trkpt lat="44.22433" lon="4.49381">
        <ele>187</ele>
        <time>2021-07-04T13:12:44Z</time>
      </trkpt>
      <trkpt lat="44.22487" lon="4.49416">
        <ele>197</ele>
        <time>2021-07-04T13:12:58Z</time>
      </trkpt>
      <trkpt lat="44.22498" lon="4.49474">
        <ele>203</ele>
        <time>2021-07-04T13:13:08Z</time>
      </trkpt>
      <trkpt lat="44.22589" lon="4.49442">
        <ele>210</ele>
        <time>2021-07-04T13:13:30Z</time>
      </trkpt>
      <trkpt lat="44.22646" lon="4.49432">
        <ele>213</ele>
        <time>2021-07-04T13:13:43Z</time>
      </trkpt>
      <trkpt lat="44.22676" lon="4.49557">
        <ele>233</ele>
        <time>2021-07-04T13:14:05Z</time>
      </trkpt>
      <trkpt lat="44.22691" lon="4.49649">
        <ele>240</ele>
        <time>2021-07-04T13:14:21Z</time>
      </trkpt>
      <trkpt lat="44.22707" lon="4.49755">
        <ele>242</ele>
        <time>2021-07-04T13:14:39Z</time>
      </trkpt>
      <trkpt lat="44.22736" lon="4.49825">
        <ele>246</ele>
        <time>2021-07-04T13:14:53Z</time>
      </trkpt>
      <trkpt lat="44.22795" lon="4.49928">
        <ele>256</ele>
        <time>2021-07-04T13:15:15Z</time>
      </trkpt>
      <trkpt lat="44.22815" lon="4.50001">
        <ele>256</ele>
        <time>2021-07-04T13:15:28Z</time>
      </trkpt>
      <trkpt lat="44.22847" lon="4.50016">
        <ele>261</ele>
        <time>2021-07-04T13:15:36Z</time>
      </trkpt>
      <trkpt lat="44.22911" lon="4.4998">
        <ele>272</ele>
        <time>2021-07-04T13:15:52Z</time>
      </trkpt>
      <trkpt lat="44.22983" lon="4.49961">
        <ele>277</ele>
        <time>2021-07-04T13:16:09Z</time>
      </trkpt>
      <trkpt lat="44.23045" lon="4.49947">
        <ele>279</ele>
        <time>2021-07-04T13:16:23Z</time>
      </trkpt>
      <trkpt lat="44.23112" lon="4.49944">
        <ele>281</ele>
        <time>2021-07-04T13:16:39Z</time>
      </trkpt>
      <trkpt lat="44.23177" lon="4.49964">
        <ele>285</ele>
        <time>2021-07-04T13:16:55Z</time>
      </trkpt>
      <trkpt lat="44.23234" lon="4.49971">
        <ele>290</ele>
        <time>2021-07-04T13:17:08Z</time>
      </trkpt>
      <trkpt lat="44.23288" lon="4.49956">
        <ele>291</ele>
        <time>2021-07-04T13:17:21Z</time>
      </trkpt>
      <trkpt lat="44.23343" lon="4.49971">
        <ele>298</ele>
        <time>2021-07-04T13:17:34Z</time>
      </trkpt>
      <trkpt lat="44.2338" lon="4.49984">
        <ele>300</ele>
        <time>2021-07-04T13:17:43Z</time>
      </trkpt>
      <trkpt lat="44.23413" lon="4.50018">
        <ele>296</ele>
        <time>2021-07-04T13:17:52Z</time>
      </trkpt>
      <trkpt lat="44.23476" lon="4.49982">
        <ele>299</ele>
        <time>2021-07-04T13:18:08Z</time>
      </trkpt>
      <trkpt lat="44.23512" lon="4.49965">
        <ele>301</ele>
        <time>2021-07-04T13:18:17Z</time>
      </trkpt>
      <trkpt lat="44.23537" lon="4.49939">
        <ele>305</ele>
        <time>2021-07-04T13:18:25Z</time>
      </trkpt>
      <trkpt lat="44.23584" lon="4.49867">
        <ele>299</ele>
        <time>2021-07-04T13:18:41Z</time>
      </trkpt>
      <trkpt lat="44.23638" lon="4.49798">
        <ele>283</ele>
        <time>2021-07-04T13:18:58Z</time>
      </trkpt>
      <trkpt lat="44.23787" lon="4.49768">
        <ele>260</ele>
        <time>2021-07-04T13:19:33Z</time>
      </trkpt>
      <trkpt lat="44.23745" lon="4.49713">
        <ele>255</ele>
        <time>2021-07-04T13:19:47Z</time>
      </trkpt>
      <trkpt lat="44.23736" lon="4.4953">
        <ele>231</ele>
        <time>2021-07-04T13:20:17Z</time>
      </trkpt>
      <trkpt lat="44.23753" lon="4.49262">
        <ele>203</ele>
        <time>2021-07-04T13:21:02Z</time>
      </trkpt>
      <trkpt lat="44.23758" lon="4.49159">
        <ele>191</ele>
        <time>2021-07-04T13:21:19Z</time>
      </trkpt>
      <trkpt lat="44.23738" lon="4.49041">
        <ele>186</ele>
        <time>2021-07-04T13:21:40Z</time>
      </trkpt>
      <trkpt lat="44.23762" lon="4.48934">
        <ele>177</ele>
        <time>2021-07-04T13:21:59Z</time>
      </trkpt>
      <trkpt lat="44.23721" lon="4.48895">
        <ele>180</ele>
        <time>2021-07-04T13:22:10Z</time>
      </trkpt>
      <trkpt lat="44.23627" lon="4.4865">
        <ele>177</ele>
        <time>2021-07-04T13:22:57Z</time>
      </trkpt>
      <trkpt lat="44.23504" lon="4.48483">
        <ele>172</ele>
        <time>2021-07-04T13:23:37Z</time>
      </trkpt>
      <trkpt lat="44.23381" lon="4.48625">
        <ele>168</ele>
        <time>2021-07-04T13:24:14Z</time>
      </trkpt>
      <trkpt lat="44.23387" lon="4.48565">
        <ele>163</ele>
        <time>2021-07-04T13:24:24Z</time>
      </trkpt>
      <trkpt lat="44.23241" lon="4.485">
        <ele>148</ele>
        <time>2021-07-04T13:25:00Z</time>
      </trkpt>
      <trkpt lat="44.23157" lon="4.48442">
        <ele>150</ele>
        <time>2021-07-04T13:25:22Z</time>
      </trkpt>
      <trkpt lat="44.23075" lon="4.48593">
        <ele>146</ele>
        <time>2021-07-04T13:25:53Z</time>
      </trkpt>
      <trkpt lat="44.22917" lon="4.4867">
        <ele>140</ele>
        <time>2021-07-04T13:26:33Z</time>
      </trkpt>
      <trkpt lat="44.22918" lon="4.48788">
        <ele>141</ele>
        <time>2021-07-04T13:26:52Z</time>
      </trkpt>
      <trkpt lat="44.22872" lon="4.48908">
        <ele>138</ele>
        <time>2021-07-04T13:27:15Z</time>
      </trkpt>
      <trkpt lat="44.22788" lon="4.48981">
        <ele>139</ele>
        <time>2021-07-04T13:27:38Z</time>
      </trkpt>
      <trkpt lat="44.22706" lon="4.49004">
        <ele>141</ele>
        <time>2021-07-04T13:27:58Z</time>
      </trkpt>
      <trkpt lat="44.22655" lon="4.49032">
        <ele>146</ele>
        <time>2021-07-04T13:28:11Z</time>
      </trkpt>
      <trkpt lat="44.22638" lon="4.48985">
        <ele>144</ele>
        <time>2021-07-04T13:28:19Z</time>
      </trkpt>
      <trkpt lat="44.22631" lon="4.48925">
        <ele>142</ele>
        <time>2021-07-04T13:28:30Z</time>
      </trkpt>
      <trkpt lat="44.22529" lon="4.4885">
        <ele>158</ele>
        <time>2021-07-04T13:28:56Z</time>
      </trkpt>
      <trkpt lat="44.22552" lon="4.4867">
        <ele>155</ele>
        <time>2021-07-04T13:29:27Z</time>
      </trkpt>
      <trkpt lat="44.22548" lon="4.48526">
        <ele>140</ele>
        <time>2021-07-04T13:29:51Z</time>
      </trkpt>
      <trkpt lat="44.22488" lon="4.48481">
        <ele>139</ele>
        <time>2021-07-04T13:30:07Z</time>
      </trkpt>
      <trkpt lat="44.22395" lon="4.48601">
        <ele>141</ele>
        <time>2021-07-04T13:30:37Z</time>
      </trkpt>
      <trkpt lat="44.22319" lon="4.48758">
        <ele>135</ele>
        <time>2021-07-04T13:31:08Z</time>
      </trkpt>
      <trkpt lat="44.22251" lon="4.4876">
        <ele>128</ele>
        <time>2021-07-04T13:31:24Z</time>
      </trkpt>
      <trkpt lat="44.22206" lon="4.4871">
        <ele>117</ele>
        <time>2021-07-04T13:31:38Z</time>
      </trkpt>
      <trkpt lat="44.22029" lon="4.48743">
        <ele>107</ele>
        <time>2021-07-04T13:32:19Z</time>
      </trkpt>
      <trkpt lat="44.21914" lon="4.48805">
        <ele>99</ele>
        <time>2021-07-04T13:32:48Z</time>
      </trkpt>
      <trkpt lat="44.21862" lon="4.48745">
        <ele>92</ele>
        <time>2021-07-04T13:33:04Z</time>
      </trkpt>
      <trkpt lat="44.21873" lon="4.48685">
        <ele>91</ele>
        <time>2021-07-04T13:33:14Z</time>
      </trkpt>
      <trkpt lat="44.21831" lon="4.48635">
        <ele>91</ele>
        <time>2021-07-04T13:33:27Z</time>
      </trkpt>
      <trkpt lat="44.21823" lon="4.48588">
        <ele>89</ele>
        <time>2021-07-04T13:33:35Z</time>
      </trkpt>
    </trkseg>
  </trk>
</gpx>